Terminal Aerodrome Forecast
Issued by NWS Raleigh/Durham, NC

Current Version | Previous Version | Text Only | Print | Product List | Glossary On
Versions: 1 2 3 4 5 6 7 8 9 10 11 12 13 14 15 16 17 18 19 20 21 22 23 24 25 26 27 28 29 30 31 32 33 34 35 36 37 38 39
000 FTUS42 KRAH 311251 AAA TAFGSO TAF AMD KGSO 311251Z 3113/0112 VRB05KT 2SM -RA BR BKN003 OVC025 TEMPO 3113/3116 6SM BR SCT003 BKN025 FM311600 13005KT P6SM SCT035 BKN050 FM312300 13005KT P6SM BKN100 FM010000 VRB04KT P6SM BKN250=

USA.gov is the U.S. government's official web portal to all federal, state and local government web resources and services.